createdAt,value
2023-03-04T00:00:58.817Z,135.07
2023-03-04T00:03:27.368Z,116.27
2023-03-04T00:05:57.436Z,129.87
2023-03-04T00:08:25.909Z,144.87
2023-03-04T00:10:54.293Z,119.37
2023-03-04T00:13:22.738Z,139.13
2023-03-04T00:15:51.192Z,131.83
2023-03-04T00:18:21.146Z,116.97
2023-03-04T00:20:49.766Z,131.23
2023-03-04T00:23:19.614Z,118.80
2023-03-04T00:25:48.147Z,132.70
2023-03-04T00:28:16.629Z,122.03
2023-03-04T00:30:45.079Z,113.63
2023-03-04T00:33:13.452Z,132.67
2023-03-04T00:35:42.153Z,123.03
2023-03-04T00:38:10.674Z,108.20
2023-03-04T00:40:40.606Z,107.07
2023-03-04T00:43:09.248Z,114.60
2023-03-04T00:45:37.768Z,116.97
2023-03-04T00:48:06.263Z,112.37
2023-03-04T00:50:34.840Z,129.67
2023-03-04T00:53:03.370Z,131.50
2023-03-04T00:55:31.853Z,110.87
2023-03-04T00:58:02.008Z,130.73
2023-03-04T01:00:30.544Z,105.77
2023-03-04T01:02:58.940Z,113.77
2023-03-04T01:05:27.586Z,110.30
2023-03-04T01:07:55.991Z,113.43
2023-03-04T01:10:24.654Z,115.27
2023-03-04T01:12:53.045Z,106.57
2023-03-04T01:15:22.904Z,116.90
2023-03-04T01:17:51.806Z,120.80
2023-03-04T01:20:20.405Z,118.97
2023-03-04T01:22:48.784Z,128.87
2023-03-04T01:25:17.416Z,112.67
2023-03-04T01:27:45.777Z,105.47
2023-03-04T01:30:14.553Z,112.73
2023-03-04T01:32:44.566Z,115.77
2023-03-04T01:35:13.257Z,125.90
2023-03-04T01:37:41.651Z,124.40
2023-03-04T01:40:10.957Z,128.10
2023-03-04T01:42:39.998Z,121.17
2023-03-04T01:45:09.789Z,125.63
2023-03-04T01:47:38.182Z,114.03
2023-03-04T01:50:13.112Z,119.47
2023-03-04T01:52:42.933Z,124.60
2023-03-04T01:55:16.673Z,108.57
2023-03-04T01:57:45.799Z,114.50
2023-03-04T02:00:26.066Z,124.27
2023-03-04T02:02:55.674Z,134.00
2023-03-04T02:05:25.784Z,131.20
2023-03-04T02:07:54.941Z,110.17
2023-03-04T02:10:23.815Z,119.77
2023-03-04T02:12:52.513Z,110.87
2023-03-04T02:15:21.221Z,124.10
2023-03-04T02:17:49.646Z,127.53
2023-03-04T02:20:24.950Z,116.93
2023-03-04T02:22:58.225Z,122.27
2023-03-04T02:25:29.271Z,123.83
2023-03-04T02:27:59.180Z,139.80
2023-03-04T02:30:27.689Z,122.57
2023-03-04T02:32:56.220Z,135.63
2023-03-04T02:35:24.815Z,130.83
2023-03-04T02:37:53.376Z,129.50
2023-03-04T02:40:25.005Z,138.10
2023-03-04T02:42:54.253Z,129.13
2023-03-04T02:45:38.913Z,132.33
2023-03-04T02:48:09.340Z,127.07
2023-03-04T02:50:39.638Z,120.77
2023-03-04T02:53:08.436Z,127.07
2023-03-04T02:55:37.332Z,117.10
2023-03-04T02:58:06.111Z,115.13
2023-03-04T03:00:34.796Z,131.97
2023-03-04T03:03:05.256Z,121.03
2023-03-04T03:05:38.217Z,118.07
2023-03-04T03:08:08.350Z,143.00
2023-03-04T03:10:37.016Z,110.90
2023-03-04T03:13:06.731Z,147.33
2023-03-04T03:15:35.672Z,140.40
2023-03-04T03:18:05.695Z,140.97
2023-03-04T03:20:34.105Z,135.93
2023-03-04T03:23:03.560Z,145.67
2023-03-04T03:25:32.059Z,138.70
2023-03-04T03:28:00.531Z,145.77
2023-03-04T03:30:30.009Z,140.13
2023-03-04T03:32:58.456Z,137.30
2023-03-04T03:35:28.378Z,139.23
2023-03-04T03:37:57.071Z,137.93
2023-03-04T03:40:25.491Z,144.63
2023-03-04T03:42:54.192Z,139.07
2023-03-04T03:45:22.646Z,128.47
2023-03-04T03:47:51.076Z,135.07
2023-03-04T03:50:19.842Z,117.27
2023-03-04T03:52:49.585Z,135.93
2023-03-04T03:55:18.259Z,111.37
2023-03-04T03:57:46.693Z,117.23
2023-03-04T04:00:16.285Z,127.57
2023-03-04T04:02:45.132Z,121.17
2023-03-04T04:05:14.436Z,119.27
2023-03-04T04:07:43.174Z,118.13
2023-03-04T04:10:13.716Z,112.37
2023-03-04T04:12:42.314Z,116.97
2023-03-04T04:15:12.554Z,125.90
2023-03-04T04:17:41.088Z,108.23
2023-03-04T04:20:10.373Z,115.40
2023-03-04T04:22:38.729Z,111.73
2023-03-04T04:25:09.244Z,120.37
2023-03-04T04:27:39.064Z,112.87
2023-03-04T04:30:08.057Z,112.03
2023-03-04T04:32:36.752Z,126.13
2023-03-04T04:35:05.266Z,108.57
2023-03-04T04:37:34.019Z,109.87
2023-03-04T04:40:02.446Z,124.77
2023-03-04T04:42:30.891Z,118.07
2023-03-04T04:45:00.765Z,127.47
2023-03-04T04:47:29.241Z,138.83
2023-03-04T04:49:57.664Z,125.47
2023-03-04T04:52:26.072Z,107.47
2023-03-04T04:54:54.479Z,134.17
2023-03-04T04:57:23.049Z,112.73
2023-03-04T04:59:51.402Z,123.70
2023-03-04T05:02:21.224Z,108.87
2023-03-04T05:04:49.697Z,115.17
2023-03-04T05:07:18.070Z,112.70
2023-03-04T05:09:46.937Z,108.43
2023-03-04T05:12:15.423Z,116.37
2023-03-04T05:14:43.824Z,98.27
2023-03-04T05:17:13.640Z,104.47
2023-03-04T05:19:43.422Z,112.50
2023-03-04T05:22:11.805Z,130.17
2023-03-04T05:24:40.521Z,105.43
2023-03-04T05:27:08.884Z,121.17
2023-03-04T05:29:37.277Z,107.73
2023-03-04T05:32:05.906Z,107.67
2023-03-04T05:34:34.491Z,121.10
2023-03-04T05:37:04.274Z,96.67
2023-03-04T05:39:32.643Z,116.40
2023-03-04T05:42:01.245Z,87.53
2023-03-04T05:44:29.765Z,101.80
2023-03-04T05:46:58.418Z,103.73
2023-03-04T05:49:26.807Z,103.13
2023-03-04T05:51:55.207Z,100.90
2023-03-04T05:54:25.018Z,106.43
2023-03-04T05:56:54.765Z,116.53
2023-03-04T05:59:23.560Z,114.47
2023-03-04T06:01:52.214Z,107.50
2023-03-04T06:04:20.802Z,113.30
2023-03-04T06:06:49.401Z,100.40
2023-03-04T06:09:18.059Z,102.67
2023-03-04T06:11:47.918Z,91.93
2023-03-04T06:14:16.429Z,100.47
2023-03-04T06:16:44.883Z,90.43
2023-03-04T06:19:13.286Z,90.20
2023-03-04T06:21:41.731Z,99.73
2023-03-04T06:24:10.231Z,91.90
2023-03-04T06:26:38.807Z,92.67
2023-03-04T06:29:08.746Z,89.73
2023-03-04T06:31:37.305Z,86.47
2023-03-04T06:34:05.780Z,94.40
2023-03-04T06:36:34.185Z,83.53
2023-03-04T06:39:04.105Z,79.83
2023-03-04T06:41:32.523Z,79.17
2023-03-04T06:44:01.060Z,79.83
2023-03-04T06:46:31.237Z,75.67
2023-03-04T06:48:59.639Z,75.70
2023-03-04T06:51:28.245Z,75.23
2023-03-04T06:53:56.670Z,67.77
2023-03-04T06:56:25.237Z,78.17
2023-03-04T06:58:53.685Z,60.60
2023-03-04T07:01:23.912Z,68.27
2023-03-04T07:03:54.518Z,70.00
2023-03-04T07:06:25.055Z,69.30
2023-03-04T07:08:53.927Z,67.17
2023-03-04T07:11:23.146Z,72.17
2023-03-04T07:13:51.829Z,67.13
2023-03-04T07:16:21.140Z,70.27
2023-03-04T07:18:49.867Z,68.20
2023-03-04T07:21:20.118Z,72.27
2023-03-04T07:23:48.704Z,68.23
2023-03-04T07:26:17.214Z,68.37
2023-03-04T07:28:46.062Z,69.17
2023-03-04T07:31:15.628Z,69.23
2023-03-04T07:33:44.199Z,69.17
2023-03-04T07:36:14.895Z,64.63
2023-03-04T07:38:46.572Z,61.87
2023-03-04T07:41:15.000Z,62.17
2023-03-04T07:43:43.452Z,70.37
2023-03-04T07:46:12.403Z,62.87
2023-03-04T07:48:41.302Z,66.57
2023-03-04T07:51:10.903Z,58.67
2023-03-04T07:53:40.152Z,58.67
2023-03-04T07:56:12.917Z,54.73
2023-03-04T07:58:41.413Z,56.17
2023-03-04T08:01:13.360Z,55.03
2023-03-04T08:03:42.064Z,51.85
2023-03-04T08:06:11.271Z,53.42
2023-03-04T08:08:40.036Z,53.30
2023-03-04T08:11:10.494Z,52.38
2023-03-04T08:13:39.154Z,52.35
2023-03-04T08:16:08.406Z,53.92
2023-03-04T08:18:36.840Z,53.95
2023-03-04T08:21:09.865Z,49.65
2023-03-04T08:23:38.405Z,50.75
2023-03-04T08:26:12.326Z,46.28
2023-03-04T08:28:40.808Z,57.58
2023-03-04T08:31:09.515Z,49.53
2023-03-04T08:33:38.254Z,54.47
2023-03-04T08:36:07.351Z,51.57
2023-03-04T08:38:36.130Z,54.87
2023-03-04T08:41:05.054Z,56.70
2023-03-04T08:43:35.480Z,56.20
2023-03-04T08:46:04.667Z,58.63
2023-03-04T08:48:33.247Z,60.83
2023-03-04T08:51:01.928Z,51.33
2023-03-04T08:53:30.343Z,58.93
2023-03-04T08:55:59.025Z,56.83
2023-03-04T08:58:27.414Z,62.93
2023-03-04T09:00:57.279Z,62.70
2023-03-04T09:03:25.743Z,62.97
2023-03-04T09:05:54.895Z,59.70
2023-03-04T09:08:23.859Z,55.20
2023-03-04T09:10:54.376Z,49.27
2023-03-04T09:13:26.064Z,55.67
2023-03-04T09:15:54.929Z,52.00
2023-03-04T09:18:26.367Z,49.80
2023-03-04T09:20:55.360Z,51.23
2023-03-04T09:23:23.980Z,52.20
2023-03-04T09:25:52.602Z,50.83
2023-03-04T09:28:21.689Z,50.80
2023-03-04T09:30:50.148Z,51.27
2023-03-04T09:33:19.741Z,47.93
2023-03-04T09:35:50.133Z,48.33
2023-03-04T09:38:18.915Z,44.23
2023-03-04T09:40:48.380Z,42.40
2023-03-04T09:43:21.311Z,41.37
2023-03-04T09:45:51.625Z,42.67
2023-03-04T09:48:22.792Z,39.70
2023-03-04T09:51:00.612Z,43.77
2023-03-04T09:53:33.174Z,41.17
2023-03-04T09:56:02.385Z,41.33
2023-03-04T09:58:37.404Z,43.73
2023-03-04T10:01:10.554Z,47.97
2023-03-04T10:03:44.034Z,44.60
2023-03-04T10:06:17.466Z,43.40
2023-03-04T10:08:48.272Z,41.63
2023-03-04T10:11:18.393Z,49.47
2023-03-04T10:13:52.602Z,45.57
2023-03-04T10:16:23.407Z,44.33
2023-03-04T10:18:53.958Z,49.30
2023-03-04T10:21:25.317Z,51.27
2023-03-04T10:23:54.873Z,53.83
2023-03-04T10:26:24.216Z,52.77
2023-03-04T10:28:55.012Z,54.23
2023-03-04T10:31:29.203Z,49.00
2023-03-04T10:33:57.690Z,48.10
2023-03-04T10:36:35.911Z,54.97
2023-03-04T10:39:07.583Z,57.10
2023-03-04T10:41:36.642Z,48.47
2023-03-04T10:44:06.345Z,48.40
2023-03-04T10:46:37.771Z,48.13
2023-03-04T10:49:06.584Z,43.50
2023-03-04T10:51:43.344Z,45.97
2023-03-04T10:54:19.888Z,47.37
2023-03-04T10:56:55.798Z,42.60
2023-03-04T10:59:39.679Z,43.37
2023-03-04T11:02:23.603Z,46.57
2023-03-04T11:04:56.780Z,48.63
2023-03-04T11:07:27.795Z,46.70
2023-03-04T11:09:58.445Z,43.43
2023-03-04T11:12:34.737Z,41.67
2023-03-04T11:15:07.719Z,45.97
2023-03-04T11:17:43.851Z,41.83
2023-03-04T11:20:16.377Z,42.00
2023-03-04T11:22:47.357Z,42.80
2023-03-04T11:25:22.589Z,42.77
2023-03-04T11:27:54.283Z,40.33
2023-03-04T11:30:28.850Z,38.97
2023-03-04T11:33:00.888Z,39.60
2023-03-04T11:35:32.729Z,37.30
2023-03-04T11:38:06.460Z,42.03
2023-03-04T11:40:37.471Z,39.23
2023-03-04T11:43:08.550Z,42.27
2023-03-04T11:45:47.526Z,36.47
2023-03-04T11:48:21.474Z,43.10
2023-03-04T11:50:51.563Z,38.63
2023-03-04T11:53:27.163Z,36.27
2023-03-04T11:56:00.573Z,36.00
2023-03-04T11:58:41.470Z,33.90
2023-03-04T12:01:10.984Z,41.17
2023-03-04T12:03:48.481Z,35.27
2023-03-04T12:06:23.240Z,33.30
2023-03-04T12:09:09.534Z,36.60
2023-03-04T12:11:44.315Z,36.33
2023-03-04T12:14:23.098Z,33.37
2023-03-04T12:17:09.362Z,33.07
2023-03-04T12:19:44.245Z,36.50
2023-03-04T12:22:24.863Z,37.03
2023-03-04T12:25:12.301Z,38.90
2023-03-04T12:27:45.228Z,37.93
2023-03-04T12:30:22.279Z,41.53
2023-03-04T12:32:55.166Z,37.80
2023-03-04T12:35:31.345Z,43.03
2023-03-04T12:38:04.979Z,43.53
2023-03-04T12:40:44.099Z,40.20
2023-03-04T12:43:29.426Z,36.83
2023-03-04T12:46:01.884Z,38.93
2023-03-04T12:48:33.221Z,36.33
2023-03-04T12:51:19.355Z,38.27
2023-03-04T12:53:54.342Z,34.33
2023-03-04T12:56:25.617Z,32.87
2023-03-04T12:58:55.965Z,38.90
2023-03-04T13:01:26.872Z,36.43
2023-03-04T13:03:59.636Z,34.17
2023-03-04T13:06:36.800Z,41.33
2023-03-04T13:09:07.322Z,38.20
2023-03-04T13:11:45.033Z,32.00
2023-03-04T13:14:26.878Z,34.07
2023-03-04T13:16:56.306Z,37.87
2023-03-04T13:19:57.952Z,34.03
2023-03-04T13:22:35.527Z,36.27
2023-03-04T13:25:27.175Z,35.27
2023-03-04T13:28:08.927Z,32.33
2023-03-04T13:30:59.556Z,37.23
2023-03-04T13:33:46.861Z,35.47
2023-03-04T13:36:38.030Z,32.63
2023-03-04T13:39:23.639Z,35.93
2023-03-04T13:41:53.644Z,38.30
2023-03-04T13:44:36.144Z,35.03
2023-03-04T13:47:11.656Z,33.30
2023-03-04T13:49:40.232Z,35.63
2023-03-04T13:52:36.386Z,35.47
2023-03-04T13:55:23.598Z,37.03
2023-03-04T13:57:53.536Z,42.37
2023-03-04T14:00:22.198Z,35.93
2023-03-04T14:02:51.312Z,35.67
2023-03-04T14:05:20.232Z,38.13
2023-03-04T14:07:49.486Z,33.87
2023-03-04T14:10:24.788Z,34.10
2023-03-04T14:12:56.354Z,33.87
2023-03-04T14:15:26.129Z,37.57
2023-03-04T14:17:55.240Z,38.43
2023-03-04T14:20:26.367Z,32.70
2023-03-04T14:22:55.136Z,33.63
2023-03-04T14:25:24.889Z,33.23
2023-03-04T14:28:04.881Z,36.80
2023-03-04T14:30:42.760Z,37.70
2023-03-04T14:33:17.365Z,35.87
2023-03-04T14:35:48.485Z,33.13
2023-03-04T14:38:21.012Z,34.63
2023-03-04T14:40:52.262Z,40.53
2023-03-04T14:43:25.582Z,34.90
2023-03-04T14:45:57.097Z,38.47
2023-03-04T14:48:27.529Z,35.00
2023-03-04T14:50:57.036Z,37.07
2023-03-04T14:53:26.940Z,36.73
2023-03-04T14:55:59.766Z,37.80
2023-03-04T14:58:30.682Z,36.37
2023-03-04T15:01:10.071Z,37.83
2023-03-04T15:03:38.774Z,33.30
2023-03-04T15:06:09.912Z,36.37
2023-03-04T15:08:39.733Z,36.43
2023-03-04T15:11:09.977Z,37.00
2023-03-04T15:13:41.078Z,37.53
2023-03-04T15:16:10.746Z,40.10
2023-03-04T15:18:39.297Z,37.27
2023-03-04T15:21:27.386Z,35.30
2023-03-04T15:23:55.911Z,39.53
2023-03-04T15:26:24.526Z,36.97
2023-03-04T15:28:54.633Z,38.00
2023-03-04T15:31:23.978Z,38.07
2023-03-04T15:33:52.617Z,37.77
2023-03-04T15:36:21.944Z,40.43
2023-03-04T15:38:51.680Z,39.83
2023-03-04T15:41:22.176Z,45.23
2023-03-04T15:43:50.644Z,41.37
2023-03-04T15:46:20.863Z,39.23
2023-03-04T15:48:50.271Z,40.23
2023-03-04T15:51:20.103Z,41.83
2023-03-04T15:53:49.365Z,39.50
2023-03-04T15:56:19.242Z,37.47
2023-03-04T15:58:49.050Z,37.60
2023-03-04T16:01:18.041Z,41.10
2023-03-04T16:03:49.032Z,41.00
2023-03-04T16:06:19.747Z,37.70
2023-03-04T16:08:48.539Z,38.60
2023-03-04T16:11:18.085Z,41.60
2023-03-04T16:13:46.504Z,39.30
2023-03-04T16:16:15.871Z,38.10
2023-03-04T16:18:45.078Z,41.90
2023-03-04T16:21:15.792Z,37.40
2023-03-04T16:23:46.455Z,39.83
2023-03-04T16:26:16.263Z,46.00
2023-03-04T16:28:44.905Z,38.73
2023-03-04T16:31:14.835Z,45.90
2023-03-04T16:33:43.714Z,39.10
2023-03-04T16:36:16.445Z,43.00
2023-03-04T16:38:45.097Z,42.77
2023-03-04T16:41:14.732Z,36.37
2023-03-04T16:43:43.824Z,39.07
2023-03-04T16:46:13.592Z,40.43
2023-03-04T16:48:42.464Z,37.93
2023-03-04T16:51:14.661Z,39.23
2023-03-04T16:53:46.341Z,39.10
2023-03-04T16:56:16.149Z,42.67
2023-03-04T16:58:45.452Z,37.80
2023-03-04T17:01:17.616Z,46.07
2023-03-04T17:03:46.260Z,41.83
2023-03-04T17:06:15.120Z,45.80
2023-03-04T17:08:45.123Z,42.07
2023-03-04T17:11:14.211Z,45.83
2023-03-04T17:13:42.785Z,46.07
2023-03-04T17:16:12.536Z,42.47
2023-03-04T17:18:41.222Z,46.77
2023-03-04T17:21:11.837Z,42.77
2023-03-04T17:23:40.555Z,51.27
2023-03-04T17:26:10.415Z,49.20
2023-03-04T17:28:38.976Z,42.63
2023-03-04T17:31:10.496Z,47.10
2023-03-04T17:33:39.266Z,41.03
2023-03-04T17:36:09.982Z,43.80
2023-03-04T17:38:40.094Z,48.33
2023-03-04T17:41:11.080Z,44.57
2023-03-04T17:43:39.619Z,50.17
2023-03-04T17:46:09.411Z,46.90
2023-03-04T17:48:38.061Z,45.53
2023-03-04T17:51:07.752Z,44.63
2023-03-04T17:53:36.426Z,46.03
2023-03-04T17:56:06.070Z,49.30
2023-03-04T17:58:37.777Z,45.00
2023-03-04T18:01:07.638Z,49.43
2023-03-04T18:03:36.164Z,45.00
2023-03-04T18:06:04.619Z,41.77
2023-03-04T18:08:33.835Z,48.17
2023-03-04T18:11:03.473Z,47.53
2023-03-04T18:13:32.002Z,52.47
2023-03-04T18:16:02.481Z,47.13
2023-03-04T18:18:31.230Z,49.13
2023-03-04T18:21:00.038Z,51.03
2023-03-04T18:23:28.845Z,46.70
2023-03-04T18:25:57.484Z,51.00
2023-03-04T18:28:26.126Z,59.27
2023-03-04T18:30:55.770Z,45.17
2023-03-04T18:33:25.996Z,48.57
2023-03-04T18:35:59.624Z,55.77
2023-03-04T18:38:28.339Z,53.80
2023-03-04T18:40:59.534Z,55.70
2023-03-04T18:43:28.319Z,53.20
2023-03-04T18:46:03.733Z,51.63
2023-03-04T18:48:35.204Z,52.47
2023-03-04T18:51:03.702Z,52.73
2023-03-04T18:53:32.984Z,51.60
2023-03-04T18:56:09.901Z,50.73
2023-03-04T18:58:40.948Z,52.03
2023-03-04T19:01:11.210Z,56.07
2023-03-04T19:03:41.808Z,55.57
2023-03-04T19:06:10.475Z,52.50
2023-03-04T19:08:39.142Z,53.30
2023-03-04T19:11:08.769Z,53.63
2023-03-04T19:13:37.141Z,51.87
2023-03-04T19:16:06.020Z,52.20
2023-03-04T19:18:34.732Z,53.57
2023-03-04T19:21:05.481Z,49.83
2023-03-04T19:23:34.054Z,57.70
2023-03-04T19:26:02.778Z,50.87
2023-03-04T19:28:31.140Z,51.00
2023-03-04T19:30:59.537Z,46.97
2023-03-04T19:33:28.161Z,49.20
2023-03-04T19:35:57.753Z,55.67
2023-03-04T19:38:27.601Z,53.07
2023-03-04T19:40:56.014Z,53.03
2023-03-04T19:43:24.458Z,52.80
2023-03-04T19:45:56.064Z,54.33
2023-03-04T19:48:24.916Z,53.53
2023-03-04T19:50:53.268Z,54.83
2023-03-04T19:53:22.144Z,50.73
2023-03-04T19:55:53.684Z,52.73
2023-03-04T19:58:22.198Z,47.40
2023-03-04T20:00:53.826Z,55.57
2023-03-04T20:03:22.311Z,57.90
2023-03-04T20:05:50.723Z,63.97
2023-03-04T20:08:19.223Z,63.60
2023-03-04T20:10:47.635Z,60.97
2023-03-04T20:13:17.405Z,57.50
2023-03-04T20:15:45.868Z,56.43
2023-03-04T20:18:14.357Z,50.80
2023-03-04T20:20:42.872Z,53.97
2023-03-04T20:23:11.377Z,57.83
2023-03-04T20:25:39.764Z,57.13
2023-03-04T20:28:08.174Z,51.77
2023-03-04T20:30:39.198Z,54.80
2023-03-04T20:33:07.937Z,49.60
2023-03-04T20:35:36.375Z,51.40
2023-03-04T20:38:04.867Z,51.27
2023-03-04T20:40:35.117Z,51.90
2023-03-04T20:43:05.592Z,51.77
2023-03-04T20:45:34.529Z,55.20
2023-03-04T20:48:04.697Z,56.30
2023-03-04T20:50:33.134Z,55.37
2023-03-04T20:53:01.569Z,53.20
2023-03-04T20:55:30.466Z,52.90
2023-03-04T20:57:59.210Z,55.00
2023-03-04T21:00:28.411Z,60.27
2023-03-04T21:02:57.730Z,55.03
2023-03-04T21:05:27.514Z,59.00
2023-03-04T21:07:56.334Z,60.63
2023-03-04T21:10:24.709Z,57.33
2023-03-04T21:12:53.477Z,50.13
2023-03-04T21:15:22.749Z,56.37
2023-03-04T21:17:51.243Z,54.77
2023-03-04T21:20:19.643Z,52.70
2023-03-04T21:22:49.406Z,52.20
2023-03-04T21:25:19.076Z,53.43
2023-03-04T21:27:47.504Z,52.77
2023-03-04T21:30:16.176Z,53.17
2023-03-04T21:32:44.701Z,51.83
2023-03-04T21:35:15.213Z,53.13
2023-03-04T21:37:44.044Z,62.90
2023-03-04T21:40:14.802Z,55.03
2023-03-04T21:42:43.224Z,57.47
2023-03-04T21:45:11.985Z,60.43
2023-03-04T21:47:40.574Z,57.73
2023-03-04T21:50:09.707Z,57.50
2023-03-04T21:52:38.150Z,59.10
2023-03-04T21:55:06.945Z,62.70
2023-03-04T21:57:36.847Z,61.73
2023-03-04T22:00:06.643Z,52.10
2023-03-04T22:02:40.289Z,55.07
2023-03-04T22:05:09.043Z,57.80
2023-03-04T22:07:37.516Z,63.50
2023-03-04T22:10:06.729Z,60.97
2023-03-04T22:12:35.151Z,56.93
2023-03-04T22:15:05.264Z,61.97
2023-03-04T22:17:35.245Z,59.97
2023-03-04T22:20:03.778Z,67.17
2023-03-04T22:22:32.218Z,63.53
2023-03-04T22:25:01.179Z,62.77
2023-03-04T22:27:30.634Z,65.50
2023-03-04T22:29:59.040Z,60.73
2023-03-04T22:32:28.829Z,72.27
2023-03-04T22:34:57.470Z,65.27
2023-03-04T22:37:25.838Z,67.53
2023-03-04T22:39:54.226Z,66.27
2023-03-04T22:42:22.833Z,69.63
2023-03-04T22:44:51.177Z,65.70
2023-03-04T22:47:20.018Z,73.67
2023-03-04T22:49:49.816Z,73.57
2023-03-04T22:52:18.281Z,72.43
2023-03-04T22:54:46.826Z,72.60
2023-03-04T22:57:15.242Z,76.17
2023-03-04T22:59:43.597Z,76.03
2023-03-04T23:02:12.002Z,72.37
2023-03-04T23:04:42.130Z,75.63
2023-03-04T23:07:12.750Z,69.03
2023-03-04T23:09:41.347Z,69.27
2023-03-04T23:12:10.491Z,65.93
2023-03-04T23:14:39.919Z,65.57
2023-03-04T23:17:08.458Z,69.50
2023-03-04T23:19:36.875Z,75.97
2023-03-04T23:22:05.334Z,71.67
2023-03-04T23:24:35.194Z,71.03
2023-03-04T23:27:03.742Z,67.63
2023-03-04T23:29:32.220Z,67.93
2023-03-04T23:32:00.646Z,71.53
2023-03-04T23:34:29.134Z,70.13
2023-03-04T23:36:57.507Z,73.50
2023-03-04T23:39:25.903Z,64.30
2023-03-04T23:41:55.823Z,70.13
2023-03-04T23:44:24.269Z,70.00
2023-03-04T23:46:52.681Z,63.43
2023-03-04T23:49:21.186Z,67.00
2023-03-04T23:51:49.650Z,61.33
2023-03-04T23:54:18.064Z,70.07
2023-03-04T23:56:46.642Z,65.77
2023-03-04T23:59:16.445Z,57.93
